Terminal Aerodrome Forecast
Issued by NWS

Home | Current Version | Previous Version | Text Only | Print | Product List | Glossary On
Versions: 1 2 3 4 5 6 7 8 9 10 11 12 13 14 15 16 17 18 19 20 21 22 23 24 25 26 27 28 29 30 31 32 33 34 35 36 37 38 39 40 41 42 43 44 45 46 47 48
000
FTUS41 KCTP 232019 AAA
TAFJST
TAF AMD
KJST 232019Z 2320/2418 14012G19KT P6SM SCT050 BKN250
     FM240100 15011KT P6SM FEW050 BKN250
     FM240900 14010KT P6SM VCSH BKN050
     FM241200 14013G21KT P6SM -RA OVC030
     FM241400 14013G21KT 5SM -RA OVC018=

USA.gov is the U.S. government's official web portal to all federal, state and local government web resources and services.